sensor_id;sensor_type;location;lat;lon;timestamp;pressure;altitude;pressure_sealevel;temperature;humidity
68506;BME280;55509;50.680;17.942;2023-02-03T00:02:12;100450.80;;;-0.96;77.64
68506;BME280;55509;50.680;17.942;2023-02-03T00:05:14;100452.23;;;-0.89;77.49
68506;BME280;55509;50.680;17.942;2023-02-03T00:08:16;100451.91;;;-0.82;77.71
68506;BME280;55509;50.680;17.942;2023-02-03T00:11:18;100450.02;;;-0.76;77.14
68506;BME280;55509;50.680;17.942;2023-02-03T00:14:19;100449.30;;;-0.71;77.09
68506;BME280;55509;50.680;17.942;2023-02-03T00:17:21;100445.58;;;-0.68;77.20
68506;BME280;55509;50.680;17.942;2023-02-03T00:20:22;100441.02;;;-0.65;77.02
68506;BME280;55509;50.680;17.942;2023-02-03T00:23:24;100426.73;;;-0.63;77.25
68506;BME280;55509;50.680;17.942;2023-02-03T00:26:26;100425.93;;;-0.61;76.93
68506;BME280;55509;50.680;17.942;2023-02-03T00:29:28;100425.98;;;-0.60;76.49
68506;BME280;55509;50.680;17.942;2023-02-03T00:32:30;100429.45;;;-0.59;76.50
68506;BME280;55509;50.680;17.942;2023-02-03T00:35:32;100428.11;;;-0.58;76.23
68506;BME280;55509;50.680;17.942;2023-02-03T00:38:33;100431.47;;;-0.55;76.33
68506;BME280;55509;50.680;17.942;2023-02-03T00:41:35;100429.77;;;-0.48;75.90
68506;BME280;55509;50.680;17.942;2023-02-03T00:44:36;100429.81;;;-0.40;75.36
68506;BME280;55509;50.680;17.942;2023-02-03T00:47:38;100427.58;;;-0.33;75.26
68506;BME280;55509;50.680;17.942;2023-02-03T00:50:39;100429.83;;;-0.27;75.26
68506;BME280;55509;50.680;17.942;2023-02-03T00:53:41;100426.13;;;-0.23;75.30
68506;BME280;55509;50.680;17.942;2023-02-03T00:56:43;100425.52;;;-0.20;75.46
68506;BME280;55509;50.680;17.942;2023-02-03T00:59:44;100424.87;;;-0.19;75.32
68506;BME280;55509;50.680;17.942;2023-02-03T01:02:46;100424.73;;;-0.18;75.57
68506;BME280;55509;50.680;17.942;2023-02-03T01:05:47;100420.05;;;-0.18;75.81
68506;BME280;55509;50.680;17.942;2023-02-03T01:08:49;100416.50;;;-0.21;76.33
68506;BME280;55509;50.680;17.942;2023-02-03T01:11:50;100414.16;;;-0.25;76.02
68506;BME280;55509;50.680;17.942;2023-02-03T01:14:52;100408.48;;;-0.30;76.41
68506;BME280;55509;50.680;17.942;2023-02-03T01:17:54;100405.92;;;-0.35;76.48
68506;BME280;55509;50.680;17.942;2023-02-03T01:20:55;100402.10;;;-0.42;76.55
68506;BME280;55509;50.680;17.942;2023-02-03T01:23:57;100400.30;;;-0.51;76.86
68506;BME280;55509;50.680;17.942;2023-02-03T01:26:59;100399.66;;;-0.61;77.03
68506;BME280;55509;50.680;17.942;2023-02-03T01:30:01;100400.03;;;-0.73;77.34
68506;BME280;55509;50.680;17.942;2023-02-03T01:33:02;100397.42;;;-0.85;77.53
68506;BME280;55509;50.680;17.942;2023-02-03T01:36:04;100393.30;;;-0.96;77.93
68506;BME280;55509;50.680;17.942;2023-02-03T01:39:05;100387.64;;;-1.07;78.36
68506;BME280;55509;50.680;17.942;2023-02-03T01:42:07;100385.17;;;-1.14;78.91
68506;BME280;55509;50.680;17.942;2023-02-03T01:45:09;100384.05;;;-1.16;78.99
68506;BME280;55509;50.680;17.942;2023-02-03T01:48:11;100380.86;;;-1.13;79.35
68506;BME280;55509;50.680;17.942;2023-02-03T01:51:12;100374.67;;;-1.08;79.10
68506;BME280;55509;50.680;17.942;2023-02-03T01:54:16;100364.73;;;-0.99;79.82
68506;BME280;55509;50.680;17.942;2023-02-03T01:57:20;100364.63;;;-0.91;79.56
68506;BME280;55509;50.680;17.942;2023-02-03T02:00:24;100362.72;;;-0.85;79.56
68506;BME280;55509;50.680;17.942;2023-02-03T02:03:33;100362.32;;;-0.81;79.54
68506;BME280;55509;50.680;17.942;2023-02-03T02:06:36;100351.80;;;-0.81;79.80
68506;BME280;55509;50.680;17.942;2023-02-03T02:09:38;100351.77;;;-0.81;79.42
68506;BME280;55509;50.680;17.942;2023-02-03T02:12:40;100342.55;;;-0.84;79.47
68506;BME280;55509;50.680;17.942;2023-02-03T02:15:59;100327.92;;;-0.88;79.65
68506;BME280;55509;50.680;17.942;2023-02-03T02:28:40;100289.11;;;-1.11;79.90
68506;BME280;55509;50.680;17.942;2023-02-03T02:34:59;100280.81;;;-1.23;80.08
68506;BME280;55509;50.680;17.942;2023-02-03T02:38:10;100278.61;;;-1.28;80.04
68506;BME280;55509;50.680;17.942;2023-02-03T02:44:25;100284.73;;;-1.37;80.64
68506;BME280;55509;50.680;17.942;2023-02-03T02:47:30;100285.33;;;-1.40;80.91
68506;BME280;55509;50.680;17.942;2023-02-03T02:50:33;100289.95;;;-1.41;81.07
68506;BME280;55509;50.680;17.942;2023-02-03T02:53:36;100292.44;;;-1.39;81.18
68506;BME280;55509;50.680;17.942;2023-02-03T02:56:40;100293.91;;;-1.36;81.26
68506;BME280;55509;50.680;17.942;2023-02-03T02:59:44;100295.10;;;-1.30;81.15
68506;BME280;55509;50.680;17.942;2023-02-03T03:02:46;100292.33;;;-1.25;81.14
68506;BME280;55509;50.680;17.942;2023-02-03T03:05:50;100286.41;;;-1.20;81.03
68506;BME280;55509;50.680;17.942;2023-02-03T03:08:56;100291.68;;;-1.18;81.00
68506;BME280;55509;50.680;17.942;2023-02-03T03:12:00;100283.10;;;-1.16;81.02
68506;BME280;55509;50.680;17.942;2023-02-03T03:15:04;100276.40;;;-1.15;80.82
68506;BME280;55509;50.680;17.942;2023-02-03T03:21:13;100255.58;;;-1.19;81.26
68506;BME280;55509;50.680;17.942;2023-02-03T03:24:17;100248.80;;;-1.20;81.49
68506;BME280;55509;50.680;17.942;2023-02-03T03:27:24;100243.11;;;-1.20;81.60
68506;BME280;55509;50.680;17.942;2023-02-03T03:30:32;100241.20;;;-1.20;81.80
68506;BME280;55509;50.680;17.942;2023-02-03T03:33:34;100234.10;;;-1.21;81.98
68506;BME280;55509;50.680;17.942;2023-02-03T03:46:00;100214.20;;;-1.29;82.97
68506;BME280;55509;50.680;17.942;2023-02-03T03:49:04;100212.91;;;-1.33;83.16
68506;BME280;55509;50.680;17.942;2023-02-03T03:52:07;100206.98;;;-1.35;83.17
68506;BME280;55509;50.680;17.942;2023-02-03T03:55:10;100207.67;;;-1.35;83.27
68506;BME280;55509;50.680;17.942;2023-02-03T03:58:15;100200.94;;;-1.35;83.89
68506;BME280;55509;50.680;17.942;2023-02-03T04:01:20;100201.07;;;-1.37;83.99
68506;BME280;55509;50.680;17.942;2023-02-03T04:04:23;100193.51;;;-1.35;83.64
68506;BME280;55509;50.680;17.942;2023-02-03T04:07:40;100194.80;;;-1.32;84.10
68506;BME280;55509;50.680;17.942;2023-02-03T04:10:42;100188.08;;;-1.32;84.00
68506;BME280;55509;50.680;17.942;2023-02-03T04:13:44;100188.54;;;-1.34;84.36
68506;BME280;55509;50.680;17.942;2023-02-03T04:16:45;100187.68;;;-1.34;83.99
68506;BME280;55509;50.680;17.942;2023-02-03T04:19:47;100192.41;;;-1.32;84.05
68506;BME280;55509;50.680;17.942;2023-02-03T04:22:49;100195.37;;;-1.31;84.27
68506;BME280;55509;50.680;17.942;2023-02-03T04:25:51;100190.69;;;-1.32;84.32
68506;BME280;55509;50.680;17.942;2023-02-03T04:28:52;100182.22;;;-1.32;84.96
68506;BME280;55509;50.680;17.942;2023-02-03T04:31:53;100169.62;;;-1.32;84.63
68506;BME280;55509;50.680;17.942;2023-02-03T04:34:55;100164.96;;;-1.32;84.61
68506;BME280;55509;50.680;17.942;2023-02-03T04:37:58;100152.16;;;-1.33;85.27
68506;BME280;55509;50.680;17.942;2023-02-03T04:40:59;100143.14;;;-1.35;84.85
68506;BME280;55509;50.680;17.942;2023-02-03T04:44:01;100136.98;;;-1.33;84.99
68506;BME280;55509;50.680;17.942;2023-02-03T04:47:02;100135.63;;;-1.32;84.98
68506;BME280;55509;50.680;17.942;2023-02-03T04:50:04;100133.38;;;-1.32;84.98
68506;BME280;55509;50.680;17.942;2023-02-03T04:53:05;100123.75;;;-1.30;85.00
68506;BME280;55509;50.680;17.942;2023-02-03T04:56:07;100112.63;;;-1.27;85.12
68506;BME280;55509;50.680;17.942;2023-02-03T04:59:09;100106.33;;;-1.24;85.14
68506;BME280;55509;50.680;17.942;2023-02-03T05:02:10;100103.76;;;-1.23;84.87
68506;BME280;55509;50.680;17.942;2023-02-03T05:05:12;100105.49;;;-1.23;85.06
68506;BME280;55509;50.680;17.942;2023-02-03T05:08:13;100092.78;;;-1.20;85.01
68506;BME280;55509;50.680;17.942;2023-02-03T05:11:14;100084.05;;;-1.18;84.85
68506;BME280;55509;50.680;17.942;2023-02-03T05:14:16;100089.41;;;-1.17;84.73
68506;BME280;55509;50.680;17.942;2023-02-03T05:17:18;100078.73;;;-1.16;84.39
68506;BME280;55509;50.680;17.942;2023-02-03T05:20:19;100075.70;;;-1.14;84.71
68506;BME280;55509;50.680;17.942;2023-02-03T05:23:21;100067.27;;;-1.13;84.79
68506;BME280;55509;50.680;17.942;2023-02-03T05:26:22;100060.88;;;-1.13;84.72
68506;BME280;55509;50.680;17.942;2023-02-03T05:29:24;100057.13;;;-1.11;84.56
68506;BME280;55509;50.680;17.942;2023-02-03T05:32:25;100046.20;;;-1.06;84.35
68506;BME280;55509;50.680;17.942;2023-02-03T05:35:27;100038.63;;;-1.05;84.35
68506;BME280;55509;50.680;17.942;2023-02-03T05:38:28;100036.89;;;-1.06;83.91
68506;BME280;55509;50.680;17.942;2023-02-03T05:41:30;100036.27;;;-1.03;83.51
68506;BME280;55509;50.680;17.942;2023-02-03T05:44:50;100030.95;;;-1.01;83.30
68506;BME280;55509;50.680;17.942;2023-02-03T05:47:52;100028.05;;;-1.00;83.04
68506;BME280;55509;50.680;17.942;2023-02-03T05:50:53;100022.55;;;-0.99;82.76
68506;BME280;55509;50.680;17.942;2023-02-03T05:53:55;100012.10;;;-0.96;81.82
68506;BME280;55509;50.680;17.942;2023-02-03T05:56:56;100012.48;;;-0.94;81.50
68506;BME280;55509;50.680;17.942;2023-02-03T05:59:58;100007.83;;;-0.94;81.16
68506;BME280;55509;50.680;17.942;2023-02-03T06:03:00;100014.95;;;-0.92;81.06
68506;BME280;55509;50.680;17.942;2023-02-03T06:06:05;100011.20;;;-0.90;80.12
68506;BME280;55509;50.680;17.942;2023-02-03T06:09:07;100007.73;;;-0.90;80.04
68506;BME280;55509;50.680;17.942;2023-02-03T06:12:08;100006.70;;;-0.90;79.74
68506;BME280;55509;50.680;17.942;2023-02-03T06:15:10;100000.71;;;-0.88;79.33
68506;BME280;55509;50.680;17.942;2023-02-03T06:18:11;99998.30;;;-0.88;78.78
68506;BME280;55509;50.680;17.942;2023-02-03T06:21:13;99995.00;;;-0.88;78.88
68506;BME280;55509;50.680;17.942;2023-02-03T06:24:14;99995.52;;;-0.88;78.15
68506;BME280;55509;50.680;17.942;2023-02-03T06:27:16;99997.09;;;-0.88;78.81
68506;BME280;55509;50.680;17.942;2023-02-03T06:30:17;99991.52;;;-0.89;78.47
68506;BME280;55509;50.680;17.942;2023-02-03T06:33:20;99984.45;;;-0.89;79.05
68506;BME280;55509;50.680;17.942;2023-02-03T06:36:22;99972.39;;;-0.88;78.88
68506;BME280;55509;50.680;17.942;2023-02-03T06:39:23;99965.14;;;-0.88;78.94
68506;BME280;55509;50.680;17.942;2023-02-03T06:42:25;99957.38;;;-0.88;78.80
68506;BME280;55509;50.680;17.942;2023-02-03T06:45:26;99950.65;;;-0.87;78.66
68506;BME280;55509;50.680;17.942;2023-02-03T06:48:28;99953.48;;;-0.85;78.27
68506;BME280;55509;50.680;17.942;2023-02-03T06:51:29;99957.30;;;-0.84;78.08
68506;BME280;55509;50.680;17.942;2023-02-03T06:54:47;99952.63;;;-0.84;78.43
68506;BME280;55509;50.680;17.942;2023-02-03T06:57:49;99954.02;;;-0.84;78.88
68506;BME280;55509;50.680;17.942;2023-02-03T07:00:53;99945.05;;;-0.83;79.16
68506;BME280;55509;50.680;17.942;2023-02-03T07:03:55;99944.78;;;-0.87;79.26
68506;BME280;55509;50.680;17.942;2023-02-03T07:07:00;99952.48;;;-0.90;79.65
68506;BME280;55509;50.680;17.942;2023-02-03T07:10:01;99936.58;;;-0.91;80.39
68506;BME280;55509;50.680;17.942;2023-02-03T07:13:03;99936.55;;;-0.93;80.69
68506;BME280;55509;50.680;17.942;2023-02-03T07:16:05;99931.29;;;-0.96;81.49
68506;BME280;55509;50.680;17.942;2023-02-03T07:19:07;99920.14;;;-1.00;82.23
68506;BME280;55509;50.680;17.942;2023-02-03T07:22:11;99914.09;;;-1.01;83.16
68506;BME280;55509;50.680;17.942;2023-02-03T07:25:13;99902.01;;;-1.01;83.76
68506;BME280;55509;50.680;17.942;2023-02-03T07:28:14;99897.45;;;-1.03;84.48
68506;BME280;55509;50.680;17.942;2023-02-03T07:31:15;99891.04;;;-1.06;84.87
68506;BME280;55509;50.680;17.942;2023-02-03T07:34:17;99885.17;;;-1.06;85.24
68506;BME280;55509;50.680;17.942;2023-02-03T07:37:18;99878.75;;;-1.07;85.64
68506;BME280;55509;50.680;17.942;2023-02-03T07:40:20;99873.36;;;-1.09;86.39
68506;BME280;55509;50.680;17.942;2023-02-03T07:43:22;99861.10;;;-1.09;86.58
68506;BME280;55509;50.680;17.942;2023-02-03T07:46:23;99862.64;;;-1.09;86.74
68506;BME280;55509;50.680;17.942;2023-02-03T07:49:25;99855.55;;;-1.11;87.15
68506;BME280;55509;50.680;17.942;2023-02-03T07:52:26;99849.86;;;-1.10;87.30
68506;BME280;55509;50.680;17.942;2023-02-03T07:55:28;99839.79;;;-1.12;87.76
68506;BME280;55509;50.680;17.942;2023-02-03T07:58:29;99830.80;;;-1.14;88.01
68506;BME280;55509;50.680;17.942;2023-02-03T08:01:31;99825.99;;;-1.12;88.51
68506;BME280;55509;50.680;17.942;2023-02-03T08:04:34;99809.95;;;-1.12;88.91
68506;BME280;55509;50.680;17.942;2023-02-03T08:07:35;99801.16;;;-1.12;89.50
68506;BME280;55509;50.680;17.942;2023-02-03T08:10:37;99790.01;;;-1.08;89.67
68506;BME280;55509;50.680;17.942;2023-02-03T08:13:38;99782.27;;;-1.07;90.18
68506;BME280;55509;50.680;17.942;2023-02-03T08:16:40;99771.95;;;-1.04;90.00
68506;BME280;55509;50.680;17.942;2023-02-03T08:19:41;99764.92;;;-1.02;90.14
68506;BME280;55509;50.680;17.942;2023-02-03T08:22:43;99754.23;;;-1.01;90.30
68506;BME280;55509;50.680;17.942;2023-02-03T08:25:49;99739.56;;;-1.02;90.82
68506;BME280;55509;50.680;17.942;2023-02-03T08:28:50;99724.52;;;-1.03;90.90
68506;BME280;55509;50.680;17.942;2023-02-03T08:31:52;99712.83;;;-1.00;91.30
68506;BME280;55509;50.680;17.942;2023-02-03T08:34:55;99700.14;;;-0.96;92.01
68506;BME280;55509;50.680;17.942;2023-02-03T08:37:56;99696.26;;;-0.91;92.11
68506;BME280;55509;50.680;17.942;2023-02-03T08:40:58;99694.30;;;-0.85;92.29
68506;BME280;55509;50.680;17.942;2023-02-03T08:43:59;99687.54;;;-0.77;92.18
68506;BME280;55509;50.680;17.942;2023-02-03T08:47:02;99674.73;;;-0.69;92.32
68506;BME280;55509;50.680;17.942;2023-02-03T08:50:04;99670.41;;;-0.59;92.06
68506;BME280;55509;50.680;17.942;2023-02-03T08:53:07;99668.73;;;-0.45;91.69
68506;BME280;55509;50.680;17.942;2023-02-03T08:56:09;99665.89;;;-0.39;91.63
68506;BME280;55509;50.680;17.942;2023-02-03T08:59:11;99654.02;;;-0.35;91.46
68506;BME280;55509;50.680;17.942;2023-02-03T09:02:15;99640.39;;;-0.34;91.47
68506;BME280;55509;50.680;17.942;2023-02-03T09:05:17;99632.29;;;-0.33;91.72
68506;BME280;55509;50.680;17.942;2023-02-03T09:08:18;99625.06;;;-0.30;91.71
68506;BME280;55509;50.680;17.942;2023-02-03T09:11:20;99612.51;;;-0.26;92.21
68506;BME280;55509;50.680;17.942;2023-02-03T09:14:21;99608.09;;;-0.21;92.48
68506;BME280;55509;50.680;17.942;2023-02-03T09:17:24;99598.52;;;-0.14;92.95
68506;BME280;55509;50.680;17.942;2023-02-03T09:20:25;99586.86;;;-0.06;92.86
68506;BME280;55509;50.680;17.942;2023-02-03T09:23:27;99577.98;;;0.01;92.54
68506;BME280;55509;50.680;17.942;2023-02-03T09:26:29;99566.61;;;0.06;92.87
68506;BME280;55509;50.680;17.942;2023-02-03T09:29:30;99563.39;;;0.11;92.91
68506;BME280;55509;50.680;17.942;2023-02-03T09:32:32;99558.63;;;0.17;92.85
68506;BME280;55509;50.680;17.942;2023-02-03T09:35:34;99551.83;;;0.26;92.94
68506;BME280;55509;50.680;17.942;2023-02-03T09:38:36;99541.14;;;0.31;92.82
68506;BME280;55509;50.680;17.942;2023-02-03T09:47:53;99511.20;;;0.45;93.22
68506;BME280;55509;50.680;17.942;2023-02-03T09:50:57;99505.71;;;0.51;92.88
68506;BME280;55509;50.680;17.942;2023-02-03T09:54:00;99492.47;;;0.59;92.31
68506;BME280;55509;50.680;17.942;2023-02-03T09:57:04;99490.44;;;0.65;92.43
68506;BME280;55509;50.680;17.942;2023-02-03T10:00:42;99484.79;;;0.70;92.24
68506;BME280;55509;50.680;17.942;2023-02-03T10:03:36;99477.55;;;0.75;92.17
68506;BME280;55509;50.680;17.942;2023-02-03T10:06:41;99465.98;;;0.77;91.87
68506;BME280;55509;50.680;17.942;2023-02-03T10:10:07;99457.17;;;0.80;91.59
68506;BME280;55509;50.680;17.942;2023-02-03T10:13:25;99449.02;;;0.77;91.48
68506;BME280;55509;50.680;17.942;2023-02-03T10:20:00;99415.92;;;0.73;91.96
68506;BME280;55509;50.680;17.942;2023-02-03T10:23:04;99413.66;;;0.72;92.03
68506;BME280;55509;50.680;17.942;2023-02-03T10:26:08;99401.56;;;0.74;92.01
68506;BME280;55509;50.680;17.942;2023-02-03T10:32:19;99384.27;;;0.76;92.02
68506;BME280;55509;50.680;17.942;2023-02-03T10:35:22;99364.73;;;0.80;92.25
68506;BME280;55509;50.680;17.942;2023-02-03T10:41:41;99342.76;;;0.82;92.29
68506;BME280;55509;50.680;17.942;2023-02-03T10:44:43;99327.20;;;0.86;92.18
68506;BME280;55509;50.680;17.942;2023-02-03T10:47:48;99319.44;;;0.90;92.23
68506;BME280;55509;50.680;17.942;2023-02-03T10:50:51;99305.93;;;0.92;91.63
68506;BME280;55509;50.680;17.942;2023-02-03T10:53:53;99295.71;;;0.92;91.93
68506;BME280;55509;50.680;17.942;2023-02-03T10:56:56;99288.45;;;0.93;92.06
68506;BME280;55509;50.680;17.942;2023-02-03T11:00:04;99283.63;;;0.94;91.96
68506;BME280;55509;50.680;17.942;2023-02-03T11:09:30;99239.85;;;1.09;91.90
68506;BME280;55509;50.680;17.942;2023-02-03T11:12:32;99231.91;;;1.12;91.81
68506;BME280;55509;50.680;17.942;2023-02-03T11:15:34;99226.19;;;1.13;91.71
68506;BME280;55509;50.680;17.942;2023-02-03T11:21:44;99214.77;;;1.17;91.68
68506;BME280;55509;50.680;17.942;2023-02-03T11:24:46;99199.89;;;1.19;91.76
68506;BME280;55509;50.680;17.942;2023-02-03T11:27:48;99182.38;;;1.17;91.58
68506;BME280;55509;50.680;17.942;2023-02-03T11:30:55;99176.31;;;1.14;91.70
68506;BME280;55509;50.680;17.942;2023-02-03T11:34:03;99167.13;;;1.13;91.75
68506;BME280;55509;50.680;17.942;2023-02-03T11:37:22;99157.61;;;1.15;91.88
68506;BME280;55509;50.680;17.942;2023-02-03T11:43:27;99145.48;;;1.10;92.13
68506;BME280;55509;50.680;17.942;2023-02-03T11:46:35;99137.85;;;1.05;92.37
68506;BME280;55509;50.680;17.942;2023-02-03T11:49:42;99132.14;;;1.01;92.46
68506;BME280;55509;50.680;17.942;2023-02-03T11:56:29;99115.16;;;0.95;92.89
68506;BME280;55509;50.680;17.942;2023-02-03T11:59:33;99110.64;;;0.92;93.08
68506;BME280;55509;50.680;17.942;2023-02-03T12:31:07;98983.17;;;1.41;94.88
68506;BME280;55509;50.680;17.942;2023-02-03T12:37:14;98965.80;;;1.62;94.71
68506;BME280;55509;50.680;17.942;2023-02-03T12:40:19;98953.45;;;1.71;94.48
68506;BME280;55509;50.680;17.942;2023-02-03T12:43:33;98939.54;;;1.81;94.55
68506;BME280;55509;50.680;17.942;2023-02-03T12:46:52;98941.58;;;1.93;94.40
68506;BME280;55509;50.680;17.942;2023-02-03T12:49:59;98935.81;;;2.00;94.25
68506;BME280;55509;50.680;17.942;2023-02-03T12:53:06;98931.77;;;2.08;94.46
68506;BME280;55509;50.680;17.942;2023-02-03T12:56:13;98920.11;;;2.15;94.64
68506;BME280;55509;50.680;17.942;2023-02-03T12:59:21;98903.55;;;2.28;94.99
68506;BME280;55509;50.680;17.942;2023-02-03T13:02:25;98901.70;;;2.44;94.67
68506;BME280;55509;50.680;17.942;2023-02-03T13:05:31;98899.66;;;2.61;94.70
68506;BME280;55509;50.680;17.942;2023-02-03T13:08:34;98897.11;;;2.75;94.28
68506;BME280;55509;50.680;17.942;2023-02-03T13:18:21;98862.58;;;3.07;93.17
68506;BME280;55509;50.680;17.942;2023-02-03T13:21:26;98855.58;;;3.11;92.68
68506;BME280;55509;50.680;17.942;2023-02-03T13:24:28;98845.45;;;3.16;92.44
68506;BME280;55509;50.680;17.942;2023-02-03T13:30:44;98824.14;;;3.40;91.79
68506;BME280;55509;50.680;17.942;2023-02-03T13:40:21;98803.37;;;3.85;90.48
68506;BME280;55509;50.680;17.942;2023-02-03T13:43:30;98800.39;;;3.86;89.87
68506;BME280;55509;50.680;17.942;2023-02-03T13:46:33;98793.44;;;3.86;89.88
68506;BME280;55509;50.680;17.942;2023-02-03T13:49:36;98780.25;;;4.06;89.36
68506;BME280;55509;50.680;17.942;2023-02-03T13:52:40;98779.20;;;4.28;88.76
68506;BME280;55509;50.680;17.942;2023-02-03T13:55:51;98784.66;;;4.34;88.30
68506;BME280;55509;50.680;17.942;2023-02-03T13:59:02;98773.91;;;4.22;88.13
68506;BME280;55509;50.680;17.942;2023-02-03T14:05:38;98771.17;;;3.85;88.96
68506;BME280;55509;50.680;17.942;2023-02-03T14:11:42;98778.92;;;3.68;89.82
68506;BME280;55509;50.680;17.942;2023-02-03T14:17:53;98789.25;;;3.62;90.36
68506;BME280;55509;50.680;17.942;2023-02-03T14:21:08;98791.56;;;3.59;90.38
68506;BME280;55509;50.680;17.942;2023-02-03T14:24:10;98799.81;;;3.53;90.56
68506;BME280;55509;50.680;17.942;2023-02-03T14:27:17;98804.36;;;3.50;90.99
68506;BME280;55509;50.680;17.942;2023-02-03T14:30:20;98816.35;;;3.51;91.19
68506;BME280;55509;50.680;17.942;2023-02-03T14:33:21;98811.48;;;3.50;91.46
68506;BME280;55509;50.680;17.942;2023-02-03T14:36:44;98790.90;;;3.56;91.73
68506;BME280;55509;50.680;17.942;2023-02-03T14:43:50;98795.34;;;3.75;91.70
68506;BME280;55509;50.680;17.942;2023-02-03T14:56:24;98794.53;;;3.82;91.02
68506;BME280;55509;50.680;17.942;2023-02-03T15:06:35;98820.89;;;3.87;90.35
68506;BME280;55509;50.680;17.942;2023-02-03T15:09:38;98825.89;;;3.90;90.21
68506;BME280;55509;50.680;17.942;2023-02-03T15:12:52;98834.55;;;3.93;89.78
68506;BME280;55509;50.680;17.942;2023-02-03T15:15:55;98842.04;;;3.93;89.69
68506;BME280;55509;50.680;17.942;2023-02-03T15:18:58;98851.77;;;3.94;89.80
68506;BME280;55509;50.680;17.942;2023-02-03T15:22:00;98855.96;;;3.92;89.81
68506;BME280;55509;50.680;17.942;2023-02-03T15:25:02;98857.42;;;3.87;89.99
68506;BME280;55509;50.680;17.942;2023-02-03T15:28:18;98859.91;;;3.83;90.07
68506;BME280;55509;50.680;17.942;2023-02-03T15:37:44;98870.92;;;3.90;89.79
68506;BME280;55509;50.680;17.942;2023-02-03T15:40:50;98872.67;;;3.90;89.54
68506;BME280;55509;50.680;17.942;2023-02-03T15:43:55;98884.87;;;3.89;89.54
68506;BME280;55509;50.680;17.942;2023-02-03T15:46:59;98885.36;;;3.92;89.62
68506;BME280;55509;50.680;17.942;2023-02-03T15:50:27;98893.34;;;3.94;89.36
68506;BME280;55509;50.680;17.942;2023-02-03T15:53:29;98886.87;;;3.96;89.63
68506;BME280;55509;50.680;17.942;2023-02-03T15:56:35;98889.25;;;3.99;89.65
68506;BME280;55509;50.680;17.942;2023-02-03T15:59:43;98893.95;;;3.99;89.21
68506;BME280;55509;50.680;17.942;2023-02-03T16:02:46;98899.02;;;3.98;89.22
68506;BME280;55509;50.680;17.942;2023-02-03T16:05:48;98900.77;;;3.97;89.29
68506;BME280;55509;50.680;17.942;2023-02-03T16:08:50;98899.17;;;3.99;89.30
68506;BME280;55509;50.680;17.942;2023-02-03T16:12:02;98904.21;;;3.99;89.26
68506;BME280;55509;50.680;17.942;2023-02-03T16:15:20;98900.09;;;3.96;89.16
68506;BME280;55509;50.680;17.942;2023-02-03T16:18:21;98904.34;;;3.90;89.45
68506;BME280;55509;50.680;17.942;2023-02-03T16:21:27;98908.56;;;3.87;89.45
68506;BME280;55509;50.680;17.942;2023-02-03T16:24:40;98911.23;;;3.82;89.48
68506;BME280;55509;50.680;17.942;2023-02-03T16:27:43;98907.60;;;3.81;89.36
68506;BME280;55509;50.680;17.942;2023-02-03T16:30:58;98923.23;;;3.82;89.46
68506;BME280;55509;50.680;17.942;2023-02-03T16:34:19;98928.42;;;3.85;89.74
68506;BME280;55509;50.680;17.942;2023-02-03T16:37:42;98927.90;;;3.84;89.91
68506;BME280;55509;50.680;17.942;2023-02-03T16:41:03;98924.10;;;3.82;90.20
68506;BME280;55509;50.680;17.942;2023-02-03T16:44:29;98934.02;;;3.82;90.13
68506;BME280;55509;50.680;17.942;2023-02-03T16:47:49;98939.59;;;3.82;90.01
68506;BME280;55509;50.680;17.942;2023-02-03T16:51:11;98945.84;;;3.82;89.93
68506;BME280;55509;50.680;17.942;2023-02-03T16:54:13;98946.86;;;3.84;89.91
68506;BME280;55509;50.680;17.942;2023-02-03T16:57:15;98943.91;;;3.83;89.80
68506;BME280;55509;50.680;17.942;2023-02-03T17:00:17;98946.00;;;3.83;90.00
68506;BME280;55509;50.680;17.942;2023-02-03T17:03:21;98950.14;;;3.86;89.63
68506;BME280;55509;50.680;17.942;2023-02-03T17:06:23;98952.50;;;3.91;89.95
68506;BME280;55509;50.680;17.942;2023-02-03T17:09:25;98957.35;;;3.93;89.60
68506;BME280;55509;50.680;17.942;2023-02-03T17:12:26;98960.10;;;3.96;89.69
68506;BME280;55509;50.680;17.942;2023-02-03T17:15:30;98966.16;;;3.98;89.44
68506;BME280;55509;50.680;17.942;2023-02-03T17:18:32;98967.52;;;4.00;89.30
68506;BME280;55509;50.680;17.942;2023-02-03T17:21:33;98963.36;;;3.99;89.16
68506;BME280;55509;50.680;17.942;2023-02-03T17:24:35;98964.38;;;4.01;88.70
68506;BME280;55509;50.680;17.942;2023-02-03T17:27:36;98960.88;;;4.03;88.00
68506;BME280;55509;50.680;17.942;2023-02-03T17:30:38;98965.36;;;4.06;87.31
68506;BME280;55509;50.680;17.942;2023-02-03T17:33:40;98965.88;;;4.07;86.88
68506;BME280;55509;50.680;17.942;2023-02-03T17:36:42;98970.95;;;4.04;86.83
68506;BME280;55509;50.680;17.942;2023-02-03T17:39:43;98975.18;;;4.00;86.61
68506;BME280;55509;50.680;17.942;2023-02-03T17:42:47;98988.27;;;3.97;86.14
68506;BME280;55509;50.680;17.942;2023-02-03T17:45:49;98985.38;;;3.92;86.72
68506;BME280;55509;50.680;17.942;2023-02-03T17:48:50;98988.08;;;3.84;86.41
68506;BME280;55509;50.680;17.942;2023-02-03T17:51:52;99003.65;;;3.76;86.86
68506;BME280;55509;50.680;17.942;2023-02-03T17:54:54;99009.13;;;3.67;87.12
68506;BME280;55509;50.680;17.942;2023-02-03T17:57:55;99019.80;;;3.61;87.62
68506;BME280;55509;50.680;17.942;2023-02-03T18:00:57;99028.20;;;3.56;87.85
68506;BME280;55509;50.680;17.942;2023-02-03T18:04:00;99033.84;;;3.49;88.12
68506;BME280;55509;50.680;17.942;2023-02-03T18:07:02;99026.63;;;3.39;88.41
68506;BME280;55509;50.680;17.942;2023-02-03T18:10:04;99018.73;;;3.28;88.45
68506;BME280;55509;50.680;17.942;2023-02-03T18:13:06;99021.38;;;3.24;88.77
68506;BME280;55509;50.680;17.942;2023-02-03T18:16:08;99023.14;;;3.21;89.18
68506;BME280;55509;50.680;17.942;2023-02-03T18:19:16;99025.77;;;3.19;89.41
68506;BME280;55509;50.680;17.942;2023-02-03T18:22:24;99031.33;;;3.19;89.36
68506;BME280;55509;50.680;17.942;2023-02-03T18:25:27;99031.70;;;3.17;89.60
68506;BME280;55509;50.680;17.942;2023-02-03T18:28:29;99024.59;;;3.15;90.11